Alturas, Florida
Current Conditions -  °F | °C
As of 10:47 AM on Monday 24 Nov 2014 (Local Time) from KBOW Reporting Station
Broken Clouds Broken Clouds  
Wind Chill: 27°   Ceiling: 1500
Heat Index: 30°   Visibility: 10mi
Dew Point: 23°   Wind: 13mph
Humidity: 79%   Direction: 180°S
Pressure: 30"   Gusts: 18mph
Location:  27.87°N, 81.71°W
Report Text: KBOW 241547Z 18011G16KT 10SM BKN015 27/23 A3000
Loading
Personal Weather Stations






























Interactive Weather Map New forecast layout! Learn more

10-Day Weather Forecast

Advertisements
Track Severe Weather on mobile